createdAt,value
2018-02-06T00:02:20.422Z,60.95
2018-02-06T00:04:47.941Z,61.06
2018-02-06T00:07:15.501Z,61.35
2018-02-06T00:09:43.030Z,61.53
2018-02-06T00:12:10.554Z,61.44
2018-02-06T00:14:38.101Z,61.93
2018-02-06T00:17:05.618Z,61.61
2018-02-06T00:19:33.174Z,61.53
2018-02-06T00:22:00.853Z,62.24
2018-02-06T00:24:28.378Z,61.28
2018-02-06T00:26:55.900Z,61.21
2018-02-06T00:29:23.470Z,61.35
2018-02-06T00:31:50.989Z,61.11
2018-02-06T00:34:18.510Z,61.06
2018-02-06T00:36:46.049Z,60.87
2018-02-06T00:39:13.571Z,61.09
2018-02-06T00:41:41.169Z,60.89
2018-02-06T00:44:08.885Z,60.89
2018-02-06T00:46:36.393Z,60.81
2018-02-06T00:49:03.934Z,61.20
2018-02-06T00:51:31.477Z,61.24
2018-02-06T00:53:58.990Z,61.54
2018-02-06T00:56:26.509Z,61.81
2018-02-06T00:58:54.069Z,61.72
2018-02-06T01:01:21.598Z,61.71
2018-02-06T01:03:49.110Z,61.99
2018-02-06T01:06:17.008Z,62.19
2018-02-06T01:08:44.520Z,62.41
2018-02-06T01:11:12.041Z,62.78
2018-02-06T01:13:39.572Z,62.95
2018-02-06T01:16:07.097Z,62.62
2018-02-06T01:18:34.620Z,63.23
2018-02-06T01:21:02.161Z,63.33
2018-02-06T01:23:29.682Z,63.63
2018-02-06T01:25:57.233Z,63.85
2018-02-06T01:28:24.782Z,63.21
2018-02-06T01:30:52.311Z,63.30
2018-02-06T01:33:19.841Z,63.11
2018-02-06T01:35:47.394Z,63.31
2018-02-06T01:38:14.984Z,63.54
2018-02-06T01:40:42.516Z,63.48
2018-02-06T01:43:10.061Z,63.54
2018-02-06T01:45:37.585Z,63.46
2018-02-06T01:48:06.049Z,63.39
2018-02-06T01:50:33.581Z,63.10
2018-02-06T01:53:01.127Z,63.36
2018-02-06T01:55:28.650Z,63.28
2018-02-06T01:57:56.189Z,63.24
2018-02-06T02:00:23.714Z,63.24
2018-02-06T02:02:51.239Z,63.44
2018-02-06T02:05:18.777Z,63.85
2018-02-06T02:07:46.297Z,63.80
2018-02-06T02:10:13.813Z,63.92
2018-02-06T02:12:41.749Z,63.98
2018-02-06T02:15:09.268Z,63.98
2018-02-06T02:17:36.786Z,64.18
2018-02-06T02:20:04.334Z,63.74
2018-02-06T02:22:31.847Z,63.88
2018-02-06T02:24:59.453Z,64.02
2018-02-06T02:27:26.992Z,64.30
2018-02-06T02:29:54.497Z,64.41
2018-02-06T02:32:22.015Z,64.49
2018-02-06T02:34:49.562Z,64.47
2018-02-06T02:37:17.076Z,64.45
2018-02-06T02:39:44.593Z,64.44
2018-02-06T04:40:13.582Z,62.82
2018-02-06T04:42:41.093Z,62.83
2018-02-06T04:45:08.641Z,62.21
2018-02-06T04:47:36.167Z,62.66
2018-02-06T04:50:03.689Z,61.93
2018-02-06T04:52:31.235Z,61.70
2018-02-06T04:54:58.758Z,61.63
2018-02-06T04:57:26.266Z,61.63
2018-02-06T04:59:53.812Z,61.91
2018-02-06T05:02:21.800Z,62.76
2018-02-06T05:04:49.425Z,63.00
2018-02-06T05:07:17.327Z,62.21
2018-02-06T05:09:44.849Z,61.52
2018-02-06T05:12:12.401Z,61.25
2018-02-06T05:14:39.962Z,61.10
2018-02-06T05:17:07.482Z,61.37
2018-02-06T05:19:35.025Z,60.52
2018-02-06T05:22:02.541Z,60.46
2018-02-06T05:24:30.086Z,60.75
2018-02-06T05:26:57.638Z,61.05
2018-02-06T05:29:25.159Z,60.39
2018-02-06T05:31:52.701Z,60.29
2018-02-06T05:34:20.216Z,60.27
2018-02-06T05:36:47.758Z,61.13
2018-02-06T05:39:15.289Z,60.20
2018-02-06T05:41:42.821Z,60.61
2018-02-06T05:44:10.373Z,60.39
2018-02-06T05:46:37.894Z,60.16
2018-02-06T05:49:05.433Z,60.32
2018-02-06T05:51:32.973Z,59.78
2018-02-06T05:54:00.490Z,59.88
2018-02-06T05:56:28.037Z,60.74
2018-02-06T05:58:55.553Z,60.46
2018-02-06T06:01:23.090Z,60.13
2018-02-06T06:03:50.637Z,60.29
2018-02-06T06:06:18.157Z,60.52
2018-02-06T06:08:45.700Z,60.46
2018-02-06T06:11:13.232Z,60.46
2018-02-06T06:13:40.779Z,60.65
2018-02-06T06:16:08.330Z,60.94
2018-02-06T06:18:35.838Z,61.05
2018-02-06T06:21:03.390Z,61.49
2018-02-06T06:23:30.922Z,62.35
2018-02-06T06:25:58.465Z,61.31
2018-02-06T06:28:26.027Z,61.33
2018-02-06T06:30:53.541Z,62.05
2018-02-06T06:33:21.084Z,61.38
2018-02-06T06:35:48.601Z,61.41
2018-02-06T06:38:16.141Z,61.41
2018-02-06T06:40:43.997Z,61.36
2018-02-06T06:43:11.522Z,61.07
2018-02-06T06:45:39.071Z,61.58
2018-02-06T06:48:06.581Z,61.46
2018-02-06T06:50:34.293Z,62.18
2018-02-06T06:53:01.929Z,62.04
2018-02-06T06:55:29.448Z,61.90
2018-02-06T06:57:57.003Z,61.76
2018-02-06T07:00:24.542Z,61.46
2018-02-06T07:02:52.316Z,61.60
2018-02-06T07:05:19.847Z,61.51
2018-02-06T07:07:47.365Z,61.34
2018-02-06T07:10:14.918Z,61.19
2018-02-06T07:12:42.442Z,61.47
2018-02-06T07:15:10.288Z,62.34
2018-02-06T07:17:37.810Z,61.63
2018-02-06T07:20:05.330Z,62.61
2018-02-06T07:22:32.873Z,61.70
2018-02-06T07:25:00.389Z,61.20
2018-02-06T07:27:28.281Z,61.47
2018-02-06T07:29:55.795Z,61.14
2018-02-06T07:32:23.314Z,60.59
2018-02-06T07:34:50.849Z,60.71
2018-02-06T07:37:18.369Z,60.83
2018-02-06T07:39:46.077Z,60.20
2018-02-06T07:42:13.597Z,60.14
2018-02-06T07:44:41.118Z,60.54
2018-02-06T07:47:08.678Z,60.24
2018-02-06T07:49:36.646Z,60.70
2018-02-06T07:52:04.389Z,60.20
2018-02-06T07:54:31.910Z,59.31
2018-02-06T07:56:59.425Z,59.32
2018-02-06T07:59:26.977Z,59.19
2018-02-06T08:01:54.499Z,59.66
2018-02-06T08:04:22.190Z,60.03
2018-02-06T08:06:49.705Z,60.35
2018-02-06T08:09:17.214Z,59.26
2018-02-06T08:11:44.761Z,59.47
2018-02-06T08:14:12.299Z,59.17
2018-02-06T08:16:39.874Z,59.14
2018-02-06T08:19:07.395Z,59.28
2018-02-06T08:21:34.911Z,59.40
2018-02-06T08:24:02.462Z,59.27
2018-02-06T08:26:29.977Z,58.80
2018-02-06T08:28:57.774Z,59.39
2018-02-06T08:31:25.302Z,58.74
2018-02-06T08:33:52.822Z,58.82
2018-02-06T08:36:20.371Z,58.51
2018-02-06T08:38:47.893Z,57.71
2018-02-06T08:41:15.453Z,57.98
2018-02-06T08:43:42.971Z,58.31
2018-02-06T08:46:10.489Z,57.13
2018-02-06T08:48:38.038Z,56.32
2018-02-06T08:51:05.562Z,55.35
2018-02-06T08:53:33.273Z,54.87
2018-02-06T08:56:00.802Z,54.77
2018-02-06T08:58:28.326Z,53.65
2018-02-06T09:00:55.877Z,53.45
2018-02-06T09:03:23.410Z,52.86
2018-02-06T09:05:51.166Z,51.77
2018-02-06T09:08:18.681Z,51.81
2018-02-06T09:10:46.198Z,51.01
2018-02-06T09:13:13.746Z,50.46
2018-02-06T09:15:41.261Z,52.06
2018-02-06T09:18:08.961Z,51.18
2018-02-06T09:20:36.646Z,49.66
2018-02-06T09:23:04.174Z,49.15
2018-02-06T09:25:31.718Z,49.74
2018-02-06T09:27:59.239Z,49.73
2018-02-06T09:30:26.814Z,49.17
2018-02-06T09:32:54.334Z,48.72
2018-02-06T09:35:21.845Z,49.90
2018-02-06T09:37:49.389Z,49.71
2018-02-06T09:40:16.917Z,49.17
2018-02-06T09:42:44.677Z,49.63
2018-02-06T09:45:12.190Z,48.95
2018-02-06T09:47:39.710Z,48.50
2018-02-06T09:50:07.275Z,47.68
2018-02-06T09:52:34.793Z,47.86
2018-02-06T09:55:02.454Z,46.62
2018-02-06T09:57:29.974Z,47.72
2018-02-06T09:59:57.493Z,48.17
2018-02-06T10:02:25.037Z,47.50
2018-02-06T10:04:52.563Z,48.96
2018-02-06T10:07:20.246Z,48.75
2018-02-06T10:09:47.761Z,48.67
2018-02-06T10:12:15.278Z,49.29
2018-02-06T10:14:42.838Z,47.90
2018-02-06T10:17:10.371Z,47.64
2018-02-06T10:19:37.922Z,46.52
2018-02-06T10:22:05.441Z,46.15
2018-02-06T10:24:33.031Z,45.52
2018-02-06T10:27:00.572Z,46.12
2018-02-06T10:29:28.099Z,45.00
2018-02-06T10:31:55.846Z,43.70
2018-02-06T10:34:23.356Z,43.01
2018-02-06T10:36:50.878Z,43.35
2018-02-06T10:39:18.425Z,45.17
2018-02-06T10:41:45.942Z,44.27
2018-02-06T10:44:13.841Z,44.58
2018-02-06T10:46:41.358Z,44.11
2018-02-06T10:49:08.879Z,42.67
2018-02-06T10:51:36.449Z,41.67
2018-02-06T10:54:03.969Z,41.10
2018-02-06T10:56:31.606Z,40.42
2018-02-06T10:58:59.129Z,39.12
2018-02-06T11:01:26.645Z,38.52
2018-02-06T11:03:54.197Z,36.56
2018-02-06T11:06:21.718Z,35.30
2018-02-06T11:08:49.432Z,34.58
2018-02-06T11:11:16.955Z,30.91
2018-02-06T11:13:44.469Z,25.80
2018-02-06T11:16:12.022Z,22.45
2018-02-06T11:18:39.545Z,19.61
2018-02-06T11:21:07.235Z,17.73
2018-02-06T11:23:34.756Z,16.85
2018-02-06T11:26:02.277Z,18.17
2018-02-06T11:28:29.820Z,18.02
2018-02-06T11:30:57.384Z,16.95
2018-02-06T11:33:25.125Z,17.07
2018-02-06T11:35:52.650Z,17.60
2018-02-06T11:38:20.174Z,18.86
2018-02-06T11:40:47.722Z,21.66
2018-02-06T11:43:15.246Z,21.29
2018-02-06T11:45:43.030Z,20.10
2018-02-06T11:48:10.559Z,20.52
2018-02-06T11:50:38.086Z,19.95
2018-02-06T11:53:05.651Z,19.73
2018-02-06T11:55:33.173Z,19.18
2018-02-06T11:58:00.781Z,18.42
2018-02-06T12:00:28.298Z,19.19
2018-02-06T12:02:55.837Z,19.61
2018-02-06T12:05:23.386Z,20.08
2018-02-06T12:07:50.924Z,20.41
2018-02-06T12:10:18.479Z,19.31
2018-02-06T12:12:45.992Z,19.95
2018-02-06T12:15:13.958Z,20.28
2018-02-06T12:17:41.522Z,20.68
2018-02-06T12:20:09.050Z,21.60
2018-02-06T12:22:36.822Z,21.73
2018-02-06T12:25:04.346Z,21.40
2018-02-06T12:27:31.863Z,22.03
2018-02-06T12:29:59.422Z,21.27
2018-02-06T12:32:26.940Z,20.49
2018-02-06T12:34:54.522Z,21.50
2018-02-06T12:37:22.046Z,21.53
2018-02-06T12:39:50.577Z,24.49
2018-02-06T12:42:18.128Z,26.11
2018-02-06T12:44:45.649Z,27.87
2018-02-06T12:47:13.481Z,30.00
2018-02-06T12:49:41.089Z,32.73
2018-02-06T12:52:08.653Z,35.41
2018-02-06T12:54:36.210Z,37.09
2018-02-06T12:57:03.755Z,38.02
2018-02-06T13:01:59.049Z,38.64
2018-02-06T13:04:26.575Z,38.47
2018-02-06T13:06:54.129Z,40.53
2018-02-06T13:09:21.642Z,40.84
2018-02-06T13:11:49.433Z,41.09
2018-02-06T13:14:16.957Z,42.12
2018-02-06T13:16:44.497Z,42.85
2018-02-06T13:19:12.124Z,42.10
2018-02-06T13:21:39.655Z,43.49
2018-02-06T13:24:07.601Z,42.68
2018-02-06T13:26:35.119Z,43.24
2018-02-06T13:29:02.681Z,43.58
2018-02-06T13:31:30.242Z,43.16
2018-02-06T13:33:57.781Z,43.10
2018-02-06T13:36:25.347Z,43.40
2018-02-06T13:38:52.902Z,44.02
2018-02-06T13:41:20.421Z,44.71
2018-02-06T13:43:47.986Z,45.54
2018-02-06T13:46:15.498Z,46.57
2018-02-06T13:48:43.260Z,46.80
2018-02-06T13:51:10.781Z,45.98
2018-02-06T13:53:38.305Z,47.27
2018-02-06T13:56:05.852Z,47.47
2018-02-06T13:58:33.378Z,47.04
2018-02-06T14:01:01.141Z,47.06
2018-02-06T14:03:28.662Z,46.09
2018-02-06T14:05:56.210Z,46.08
2018-02-06T14:08:23.750Z,46.28
2018-02-06T14:10:51.273Z,45.61
2018-02-06T14:13:18.934Z,46.26
2018-02-06T14:15:46.461Z,46.26
2018-02-06T14:18:13.983Z,47.23
2018-02-06T14:20:41.531Z,47.25
2018-02-06T14:23:09.047Z,47.36
2018-02-06T14:25:37.059Z,46.88
2018-02-06T14:28:04.582Z,46.97
2018-02-06T14:30:32.111Z,46.60
2018-02-06T14:32:59.658Z,47.11
2018-02-06T14:35:27.194Z,46.19
2018-02-06T14:37:54.952Z,45.77
2018-02-06T14:40:22.482Z,44.57
2018-02-06T14:42:49.997Z,45.92
2018-02-06T14:45:17.550Z,46.66
2018-02-06T14:47:45.193Z,46.39
2018-02-06T14:50:12.934Z,46.84
2018-02-06T14:52:40.451Z,47.39
2018-02-06T14:55:07.984Z,48.47
2018-02-06T14:57:35.529Z,47.74
2018-02-06T15:00:03.047Z,48.00
2018-02-06T15:02:30.938Z,48.24
2018-02-06T15:04:58.516Z,47.73
2018-02-06T15:07:26.045Z,48.57
2018-02-06T15:09:53.590Z,49.01
2018-02-06T15:12:21.117Z,48.99
2018-02-06T15:14:48.973Z,49.49
2018-02-06T15:17:16.555Z,49.32
2018-02-06T15:19:44.087Z,50.11
2018-02-06T15:22:11.943Z,50.12
2018-02-06T15:24:39.599Z,50.11
2018-02-06T15:27:07.366Z,50.80
2018-02-06T15:29:34.913Z,51.19
2018-02-06T15:32:02.589Z,51.44
2018-02-06T15:34:30.170Z,51.71
2018-02-06T15:36:57.705Z,52.20
2018-02-06T15:39:25.286Z,51.82
2018-02-06T15:41:52.805Z,52.11
2018-02-06T15:44:20.353Z,52.12
2018-02-06T15:46:48.113Z,52.86
2018-02-06T15:49:15.634Z,53.26
2018-02-06T15:51:43.193Z,53.24
2018-02-06T15:54:11.127Z,53.26
2018-02-06T15:56:38.793Z,53.22
2018-02-06T15:59:06.630Z,53.17
2018-02-06T16:01:34.236Z,53.35
2018-02-06T16:04:02.169Z,53.83
2018-02-06T16:06:30.718Z,54.34
2018-02-06T16:08:58.373Z,54.46
2018-02-06T16:11:26.377Z,54.77
2018-02-06T16:13:53.918Z,54.74
2018-02-06T16:16:21.932Z,54.83
2018-02-06T16:18:49.697Z,54.90
2018-02-06T16:21:17.294Z,55.55
2018-02-06T16:23:45.334Z,55.68
2018-02-06T16:26:13.196Z,56.31
2018-02-06T16:28:41.674Z,56.31
2018-02-06T16:31:09.544Z,56.60
2018-02-06T16:33:37.133Z,56.62
2018-02-06T16:36:05.069Z,56.73
2018-02-06T16:38:32.990Z,56.93
2018-02-06T16:41:01.030Z,57.13
2018-02-06T16:43:28.873Z,57.07
2018-02-06T16:45:57.539Z,56.74
2018-02-06T16:48:25.527Z,57.16
2018-02-06T16:50:53.393Z,57.49
2018-02-06T16:53:21.874Z,58.53
2018-02-06T16:55:49.706Z,58.96
2018-02-06T16:58:17.997Z,59.03
2018-02-06T17:00:45.987Z,59.21
2018-02-06T17:03:13.854Z,60.09
2018-02-06T17:05:42.126Z,59.84
2018-02-06T17:08:09.995Z,59.95
2018-02-06T17:10:37.861Z,60.80
2018-02-06T17:13:06.140Z,60.63
2018-02-06T17:15:34.311Z,60.32
2018-02-06T17:18:02.279Z,60.42
2018-02-06T17:20:30.123Z,60.52
2018-02-06T17:22:58.018Z,60.63
2018-02-06T17:25:26.084Z,60.58
2018-02-06T17:27:53.950Z,61.32
2018-02-06T17:30:22.022Z,61.21
2018-02-06T17:32:49.857Z,61.75
2018-02-06T17:35:17.755Z,61.79
2018-02-06T17:37:45.628Z,61.76
2018-02-06T17:40:13.692Z,62.03
2018-02-06T17:42:41.451Z,61.89
2018-02-06T17:45:09.038Z,61.65
2018-02-06T17:47:36.574Z,61.67
2018-02-06T17:50:04.395Z,61.92
2018-02-06T17:52:32.206Z,62.04
2018-02-06T17:55:00.070Z,62.81
2018-02-06T17:57:28.450Z,62.51
2018-02-06T17:59:56.228Z,63.24
2018-02-06T18:02:24.153Z,62.79
2018-02-06T18:04:52.055Z,62.49
2018-02-06T18:07:20.020Z,62.65
2018-02-06T18:09:47.855Z,63.00
2018-02-06T18:12:15.650Z,63.15
2018-02-06T18:14:44.846Z,63.19
2018-02-06T18:17:13.226Z,63.40
2018-02-06T18:19:41.399Z,63.48
2018-02-06T18:22:09.372Z,63.62
2018-02-06T18:24:37.258Z,63.69
2018-02-06T18:27:05.168Z,63.79
2018-02-06T18:29:33.035Z,64.30
2018-02-06T18:32:01.146Z,64.06
2018-02-06T18:34:29.211Z,64.11
2018-02-06T18:36:57.410Z,64.21
2018-02-06T18:39:25.354Z,64.31
2018-02-06T18:41:53.325Z,64.44
2018-02-06T18:44:21.498Z,64.24
2018-02-06T18:46:49.365Z,64.33
2018-02-06T18:49:17.194Z,64.73
2018-02-06T18:51:45.061Z,64.55
2018-02-06T18:54:12.963Z,64.33
2018-02-06T18:56:41.159Z,63.98
2018-02-06T18:59:09.145Z,64.22
2018-02-06T19:01:37.075Z,64.75
2018-02-06T19:04:05.018Z,64.84
2018-02-06T19:06:32.886Z,65.06
2018-02-06T19:09:01.493Z,64.99
2018-02-06T19:11:30.538Z,64.86
2018-02-06T19:13:59.333Z,64.83
2018-02-06T19:16:28.369Z,64.74
2018-02-06T19:18:56.338Z,65.20
2018-02-06T19:21:24.818Z,65.19
2018-02-06T19:23:52.788Z,65.28
2018-02-06T19:26:21.248Z,65.31
2018-02-06T19:28:49.238Z,65.19
2018-02-06T19:31:17.520Z,64.82
2018-02-06T19:33:45.400Z,64.61
2018-02-06T19:36:13.356Z,64.79
2018-02-06T19:38:41.216Z,65.05
2018-02-06T19:41:09.186Z,65.33
2018-02-06T19:43:37.153Z,65.64
2018-02-06T19:46:05.175Z,65.56
2018-02-06T19:48:33.193Z,65.57
2018-02-06T19:51:01.059Z,65.46
2018-02-06T19:53:30.360Z,65.53
2018-02-06T19:55:58.329Z,65.62
2018-02-06T19:58:26.624Z,65.58
2018-02-06T20:00:54.473Z,65.77
2018-02-06T20:03:22.339Z,65.78
2018-02-06T20:05:50.409Z,65.70
2018-02-06T20:08:18.789Z,65.98
2018-02-06T20:10:46.962Z,65.67
2018-02-06T20:13:14.828Z,65.70
2018-02-06T20:15:42.898Z,65.88
2018-02-06T20:18:11.901Z,65.98
2018-02-06T20:20:40.476Z,65.58
2018-02-06T20:23:08.444Z,65.61
2018-02-06T20:25:37.017Z,65.88
2018-02-06T20:28:05.940Z,66.08
2018-02-06T20:30:33.886Z,65.34
2018-02-06T20:33:01.754Z,65.31
2018-02-06T20:35:30.234Z,65.15
2018-02-06T20:37:58.073Z,65.19
2018-02-06T20:40:25.967Z,65.19
2018-02-06T20:42:55.163Z,65.29
2018-02-06T20:45:23.031Z,65.72
2018-02-06T20:47:52.230Z,65.83
2018-02-06T20:50:20.200Z,66.32
2018-02-06T20:52:48.474Z,66.21
2018-02-06T20:55:16.443Z,66.30
2018-02-06T20:57:44.924Z,66.12
2018-02-06T21:00:13.616Z,66.31
2018-02-06T21:02:41.641Z,66.52
2018-02-06T21:05:12.927Z,66.56
2018-02-06T21:07:40.895Z,66.61
2018-02-06T21:10:09.339Z,66.42
2018-02-06T21:12:37.846Z,66.34
2018-02-06T21:15:05.734Z,66.20
2018-02-06T21:17:33.561Z,66.33
2018-02-06T21:20:01.471Z,66.54
2018-02-06T21:22:29.395Z,65.99
2018-02-06T21:24:57.701Z,66.01
2018-02-06T21:27:25.567Z,66.16
2018-02-06T21:29:53.436Z,65.75
2018-02-06T21:32:21.327Z,65.99
2018-02-06T21:34:49.270Z,66.22
2018-02-06T21:37:17.566Z,66.49
2018-02-06T21:39:46.230Z,66.54
2018-02-06T21:42:14.917Z,66.33
2018-02-06T21:44:42.845Z,66.12
2018-02-06T21:47:11.571Z,66.13
2018-02-06T21:49:40.052Z,66.06
2018-02-06T21:52:07.919Z,66.27
2018-02-06T21:54:35.801Z,66.17
2018-02-06T21:57:04.265Z,66.17
2018-02-06T21:59:32.095Z,66.00
2018-02-06T22:02:00.327Z,65.96
2018-02-06T22:04:28.173Z,66.02
2018-02-06T22:06:56.039Z,66.15
2018-02-06T22:09:24.078Z,66.36
2018-02-06T22:11:52.082Z,66.53
2018-02-06T22:14:20.020Z,66.69
2018-02-06T22:16:47.984Z,66.45
2018-02-06T22:19:16.817Z,66.22
2018-02-06T22:21:45.288Z,66.41
2018-02-06T22:24:13.154Z,66.88
2018-02-06T22:26:41.536Z,66.48
2018-02-06T22:29:09.500Z,66.89
2018-02-06T22:31:37.778Z,66.42
2018-02-06T22:34:05.957Z,66.60
2018-02-06T22:36:33.919Z,66.78
2018-02-06T22:39:02.093Z,67.04
2018-02-06T22:41:29.961Z,67.03
2018-02-06T22:43:59.716Z,67.21
2018-02-06T22:46:29.587Z,67.18
2018-02-06T22:48:57.449Z,67.23
2018-02-06T22:51:25.247Z,67.19
2018-02-06T22:53:53.898Z,67.33
2018-02-06T22:56:21.766Z,67.22
2018-02-06T22:58:49.633Z,67.24
2018-02-06T23:01:17.369Z,66.87
2018-02-06T23:03:45.420Z,66.89
2018-02-06T23:06:13.232Z,67.23
2018-02-06T23:08:40.977Z,66.84
2018-02-06T23:11:08.627Z,66.77
2018-02-06T23:13:36.663Z,66.94
2018-02-06T23:16:04.495Z,66.87
2018-02-06T23:18:32.247Z,66.68
2018-02-06T23:20:59.815Z,67.28
2018-02-06T23:23:27.477Z,67.16
2018-02-06T23:25:55.043Z,67.18
2018-02-06T23:28:23.068Z,66.71
2018-02-06T23:30:50.641Z,67.10
2018-02-06T23:33:18.181Z,67.37
2018-02-06T23:35:45.888Z,67.27
2018-02-06T23:38:13.427Z,67.37
2018-02-06T23:40:41.246Z,67.43
2018-02-06T23:43:08.832Z,67.47
2018-02-06T23:45:36.370Z,67.34
2018-02-06T23:48:04.209Z,67.53
2018-02-06T23:50:31.872Z,67.57
2018-02-06T23:53:00.024Z,67.40
2018-02-06T23:55:27.546Z,66.97
2018-02-06T23:57:55.073Z,67.01
